sensor_id;sensor_type;location;lat;lon;timestamp;P1;durP1;ratioP1;P2;durP2;ratioP2
19679;SDS011;9989;48.962;9.182;2022-12-04T00:00:01;34.83;;;15.47;;
19679;SDS011;9989;48.962;9.182;2022-12-04T00:02:30;32.73;;;14.67;;
19679;SDS011;9989;48.962;9.182;2022-12-04T00:04:56;34.77;;;15.17;;
19679;SDS011;9989;48.962;9.182;2022-12-04T00:07:21;31.43;;;14.40;;
19679;SDS011;9989;48.962;9.182;2022-12-04T00:09:47;29.40;;;13.30;;
19679;SDS011;9989;48.962;9.182;2022-12-04T00:12:12;29.63;;;13.57;;
19679;SDS011;9989;48.962;9.182;2022-12-04T00:14:38;30.87;;;14.80;;
19679;SDS011;9989;48.962;9.182;2022-12-04T00:17:03;27.83;;;12.93;;
19679;SDS011;9989;48.962;9.182;2022-12-04T00:19:29;30.53;;;14.97;;
19679;SDS011;9989;48.962;9.182;2022-12-04T00:21:54;29.83;;;13.30;;
19679;SDS011;9989;48.962;9.182;2022-12-04T00:24:20;29.73;;;14.30;;
19679;SDS011;9989;48.962;9.182;2022-12-04T00:26:46;29.37;;;13.47;;
19679;SDS011;9989;48.962;9.182;2022-12-04T00:29:11;26.00;;;13.13;;
19679;SDS011;9989;48.962;9.182;2022-12-04T00:31:37;29.53;;;14.10;;
19679;SDS011;9989;48.962;9.182;2022-12-04T00:34:04;27.53;;;13.03;;
19679;SDS011;9989;48.962;9.182;2022-12-04T00:36:29;27.37;;;13.17;;
19679;SDS011;9989;48.962;9.182;2022-12-04T00:38:57;28.37;;;13.03;;
19679;SDS011;9989;48.962;9.182;2022-12-04T00:41:24;26.90;;;13.60;;
19679;SDS011;9989;48.962;9.182;2022-12-04T00:43:52;28.60;;;13.83;;
19679;SDS011;9989;48.962;9.182;2022-12-04T00:46:18;29.87;;;14.03;;
19679;SDS011;9989;48.962;9.182;2022-12-04T00:48:44;29.03;;;13.73;;
19679;SDS011;9989;48.962;9.182;2022-12-04T00:51:11;27.63;;;12.93;;
19679;SDS011;9989;48.962;9.182;2022-12-04T00:53:39;30.87;;;14.33;;
19679;SDS011;9989;48.962;9.182;2022-12-04T00:56:05;28.47;;;13.80;;
19679;SDS011;9989;48.962;9.182;2022-12-04T00:58:33;29.90;;;13.57;;
19679;SDS011;9989;48.962;9.182;2022-12-04T01:01:03;26.50;;;12.07;;
19679;SDS011;9989;48.962;9.182;2022-12-04T01:03:30;27.70;;;12.77;;
19679;SDS011;9989;48.962;9.182;2022-12-04T01:05:56;28.97;;;13.60;;
19679;SDS011;9989;48.962;9.182;2022-12-04T01:08:21;29.83;;;14.17;;
19679;SDS011;9989;48.962;9.182;2022-12-04T01:10:47;30.47;;;14.03;;
19679;SDS011;9989;48.962;9.182;2022-12-04T01:13:12;29.60;;;13.13;;
19679;SDS011;9989;48.962;9.182;2022-12-04T01:15:38;26.77;;;13.37;;
19679;SDS011;9989;48.962;9.182;2022-12-04T01:18:06;29.10;;;13.47;;
19679;SDS011;9989;48.962;9.182;2022-12-04T01:20:32;28.40;;;12.70;;
19679;SDS011;9989;48.962;9.182;2022-12-04T01:22:57;25.67;;;12.83;;
19679;SDS011;9989;48.962;9.182;2022-12-04T01:25:23;28.77;;;13.20;;
19679;SDS011;9989;48.962;9.182;2022-12-04T01:27:48;27.00;;;12.90;;
19679;SDS011;9989;48.962;9.182;2022-12-04T01:30:14;28.93;;;13.67;;
19679;SDS011;9989;48.962;9.182;2022-12-04T01:32:40;25.97;;;11.73;;
19679;SDS011;9989;48.962;9.182;2022-12-04T01:35:05;27.87;;;13.00;;
19679;SDS011;9989;48.962;9.182;2022-12-04T01:37:31;31.00;;;13.00;;
19679;SDS011;9989;48.962;9.182;2022-12-04T01:39:57;28.73;;;12.63;;
19679;SDS011;9989;48.962;9.182;2022-12-04T01:42:23;26.50;;;12.43;;
19679;SDS011;9989;48.962;9.182;2022-12-04T01:47:48;23.93;;;11.27;;
19679;SDS011;9989;48.962;9.182;2022-12-04T01:50:14;25.83;;;12.17;;
19679;SDS011;9989;48.962;9.182;2022-12-04T01:52:40;23.93;;;11.20;;
19679;SDS011;9989;48.962;9.182;2022-12-04T01:55:06;28.10;;;11.90;;
19679;SDS011;9989;48.962;9.182;2022-12-04T01:57:32;25.30;;;12.10;;
19679;SDS011;9989;48.962;9.182;2022-12-04T02:00:00;27.27;;;12.30;;
19679;SDS011;9989;48.962;9.182;2022-12-04T02:02:38;25.03;;;11.93;;
19679;SDS011;9989;48.962;9.182;2022-12-04T02:05:10;22.63;;;10.77;;
19679;SDS011;9989;48.962;9.182;2022-12-04T02:07:38;23.37;;;10.60;;
19679;SDS011;9989;48.962;9.182;2022-12-04T02:10:05;26.77;;;12.17;;
19679;SDS011;9989;48.962;9.182;2022-12-04T02:20:52;25.83;;;11.70;;
19679;SDS011;9989;48.962;9.182;2022-12-04T02:31:41;27.37;;;12.10;;
19679;SDS011;9989;48.962;9.182;2022-12-04T02:34:13;28.63;;;11.30;;
19679;SDS011;9989;48.962;9.182;2022-12-04T02:36:56;23.27;;;10.83;;
19679;SDS011;9989;48.962;9.182;2022-12-04T02:39:29;26.07;;;12.23;;
19679;SDS011;9989;48.962;9.182;2022-12-04T02:42:48;23.53;;;11.13;;
19679;SDS011;9989;48.962;9.182;2022-12-04T02:45:09;23.10;;;10.97;;
19679;SDS011;9989;48.962;9.182;2022-12-04T02:47:38;29.20;;;11.93;;
19679;SDS011;9989;48.962;9.182;2022-12-04T02:50:07;26.77;;;11.97;;
19679;SDS011;9989;48.962;9.182;2022-12-04T02:52:40;25.27;;;12.07;;
19679;SDS011;9989;48.962;9.182;2022-12-04T02:55:12;23.87;;;11.47;;
19679;SDS011;9989;48.962;9.182;2022-12-04T02:58:16;25.70;;;12.23;;
19679;SDS011;9989;48.962;9.182;2022-12-04T03:00:50;26.83;;;12.40;;
19679;SDS011;9989;48.962;9.182;2022-12-04T03:03:25;26.70;;;11.83;;
19679;SDS011;9989;48.962;9.182;2022-12-04T03:05:57;23.97;;;11.93;;
19679;SDS011;9989;48.962;9.182;2022-12-04T03:08:29;27.17;;;13.07;;
19679;SDS011;9989;48.962;9.182;2022-12-04T03:11:01;28.30;;;12.40;;
19679;SDS011;9989;48.962;9.182;2022-12-04T03:13:29;29.80;;;12.47;;
19679;SDS011;9989;48.962;9.182;2022-12-04T03:16:01;28.07;;;12.00;;
19679;SDS011;9989;48.962;9.182;2022-12-04T03:18:43;26.87;;;11.77;;
19679;SDS011;9989;48.962;9.182;2022-12-04T03:21:21;26.50;;;12.13;;
19679;SDS011;9989;48.962;9.182;2022-12-04T03:23:55;27.90;;;12.53;;
19679;SDS011;9989;48.962;9.182;2022-12-04T03:31:42;26.93;;;11.97;;
19679;SDS011;9989;48.962;9.182;2022-12-04T03:34:12;25.60;;;12.17;;
19679;SDS011;9989;48.962;9.182;2022-12-04T03:36:46;26.27;;;11.73;;
19679;SDS011;9989;48.962;9.182;2022-12-04T03:41:55;27.07;;;12.53;;
19679;SDS011;9989;48.962;9.182;2022-12-04T03:47:23;28.17;;;12.30;;
19679;SDS011;9989;48.962;9.182;2022-12-04T03:52:56;24.90;;;11.50;;
19679;SDS011;9989;48.962;9.182;2022-12-04T03:57:58;27.67;;;13.23;;
19679;SDS011;9989;48.962;9.182;2022-12-04T04:00:29;25.80;;;11.87;;
19679;SDS011;9989;48.962;9.182;2022-12-04T04:03:02;25.30;;;10.63;;
19679;SDS011;9989;48.962;9.182;2022-12-04T04:05:42;24.10;;;11.57;;
19679;SDS011;9989;48.962;9.182;2022-12-04T04:08:13;27.87;;;12.17;;
19679;SDS011;9989;48.962;9.182;2022-12-04T04:10:50;26.90;;;12.33;;
19679;SDS011;9989;48.962;9.182;2022-12-04T04:13:38;32.53;;;14.03;;
19679;SDS011;9989;48.962;9.182;2022-12-04T04:16:28;25.23;;;11.40;;
19679;SDS011;9989;48.962;9.182;2022-12-04T04:19:15;24.40;;;12.13;;
19679;SDS011;9989;48.962;9.182;2022-12-04T04:22:03;23.93;;;11.67;;
19679;SDS011;9989;48.962;9.182;2022-12-04T04:24:56;31.40;;;13.53;;
19679;SDS011;9989;48.962;9.182;2022-12-04T04:27:28;23.87;;;11.80;;
19679;SDS011;9989;48.962;9.182;2022-12-04T04:29:53;26.07;;;13.37;;
19679;SDS011;9989;48.962;9.182;2022-12-04T04:37:24;29.57;;;13.67;;
19679;SDS011;9989;48.962;9.182;2022-12-04T04:42:56;32.67;;;15.50;;
19679;SDS011;9989;48.962;9.182;2022-12-04T04:48:12;27.07;;;13.03;;
19679;SDS011;9989;48.962;9.182;2022-12-04T04:50:47;31.00;;;13.97;;
19679;SDS011;9989;48.962;9.182;2022-12-04T04:53:25;27.57;;;13.53;;
19679;SDS011;9989;48.962;9.182;2022-12-04T04:55:57;23.90;;;12.53;;
19679;SDS011;9989;48.962;9.182;2022-12-04T04:58:23;26.57;;;12.77;;
19679;SDS011;9989;48.962;9.182;2022-12-04T05:01:02;29.57;;;13.27;;
19679;SDS011;9989;48.962;9.182;2022-12-04T05:03:30;26.87;;;12.37;;
19679;SDS011;9989;48.962;9.182;2022-12-04T05:05:57;24.63;;;11.97;;
19679;SDS011;9989;48.962;9.182;2022-12-04T05:08:22;25.33;;;11.97;;
19679;SDS011;9989;48.962;9.182;2022-12-04T05:10:48;26.57;;;13.00;;
19679;SDS011;9989;48.962;9.182;2022-12-04T05:13:14;28.43;;;13.40;;
19679;SDS011;9989;48.962;9.182;2022-12-04T05:15:40;34.67;;;15.10;;
19679;SDS011;9989;48.962;9.182;2022-12-04T05:18:06;29.93;;;13.97;;
19679;SDS011;9989;48.962;9.182;2022-12-04T05:20:32;26.00;;;13.27;;
19679;SDS011;9989;48.962;9.182;2022-12-04T05:22:58;28.47;;;12.80;;
19679;SDS011;9989;48.962;9.182;2022-12-04T05:25:24;28.47;;;13.77;;
19679;SDS011;9989;48.962;9.182;2022-12-04T05:27:50;28.67;;;13.67;;
19679;SDS011;9989;48.962;9.182;2022-12-04T05:30:15;30.87;;;14.90;;
19679;SDS011;9989;48.962;9.182;2022-12-04T05:32:41;30.63;;;14.20;;
19679;SDS011;9989;48.962;9.182;2022-12-04T05:35:07;31.13;;;14.53;;
19679;SDS011;9989;48.962;9.182;2022-12-04T05:37:36;27.70;;;12.73;;
19679;SDS011;9989;48.962;9.182;2022-12-04T05:40:04;29.57;;;14.00;;
19679;SDS011;9989;48.962;9.182;2022-12-04T05:42:30;30.53;;;13.77;;
19679;SDS011;9989;48.962;9.182;2022-12-04T05:44:56;27.80;;;12.83;;
19679;SDS011;9989;48.962;9.182;2022-12-04T05:47:21;28.93;;;13.50;;
19679;SDS011;9989;48.962;9.182;2022-12-04T05:49:47;29.57;;;13.67;;
19679;SDS011;9989;48.962;9.182;2022-12-04T05:52:12;27.47;;;12.57;;
19679;SDS011;9989;48.962;9.182;2022-12-04T05:54:38;29.10;;;14.37;;
19679;SDS011;9989;48.962;9.182;2022-12-04T05:57:04;27.90;;;13.53;;
19679;SDS011;9989;48.962;9.182;2022-12-04T05:59:30;29.63;;;13.33;;
19679;SDS011;9989;48.962;9.182;2022-12-04T06:01:55;29.97;;;13.70;;
19679;SDS011;9989;48.962;9.182;2022-12-04T06:04:21;30.30;;;13.97;;
19679;SDS011;9989;48.962;9.182;2022-12-04T06:06:46;30.73;;;14.63;;
19679;SDS011;9989;48.962;9.182;2022-12-04T06:09:12;28.73;;;13.30;;
19679;SDS011;9989;48.962;9.182;2022-12-04T06:11:39;27.73;;;13.17;;
19679;SDS011;9989;48.962;9.182;2022-12-04T06:14:06;28.50;;;13.77;;
19679;SDS011;9989;48.962;9.182;2022-12-04T06:16:35;28.33;;;13.37;;
19679;SDS011;9989;48.962;9.182;2022-12-04T06:19:04;26.90;;;12.87;;
19679;SDS011;9989;48.962;9.182;2022-12-04T06:21:32;30.10;;;14.13;;
19679;SDS011;9989;48.962;9.182;2022-12-04T06:24:00;28.47;;;14.43;;
19679;SDS011;9989;48.962;9.182;2022-12-04T06:26:26;28.87;;;13.20;;
19679;SDS011;9989;48.962;9.182;2022-12-04T06:28:52;31.33;;;15.13;;
19679;SDS011;9989;48.962;9.182;2022-12-04T06:31:20;33.70;;;17.13;;
19679;SDS011;9989;48.962;9.182;2022-12-04T06:33:46;33.97;;;17.67;;
19679;SDS011;9989;48.962;9.182;2022-12-04T06:36:13;28.33;;;15.13;;
19679;SDS011;9989;48.962;9.182;2022-12-04T06:38:40;29.67;;;14.20;;
19679;SDS011;9989;48.962;9.182;2022-12-04T06:41:08;30.43;;;13.83;;
19679;SDS011;9989;48.962;9.182;2022-12-04T06:43:35;26.63;;;12.83;;
19679;SDS011;9989;48.962;9.182;2022-12-04T06:46:05;24.63;;;13.33;;
19679;SDS011;9989;48.962;9.182;2022-12-04T06:48:31;30.33;;;14.37;;
19679;SDS011;9989;48.962;9.182;2022-12-04T06:50:58;27.90;;;14.00;;
19679;SDS011;9989;48.962;9.182;2022-12-04T06:53:28;27.83;;;14.20;;
19679;SDS011;9989;48.962;9.182;2022-12-04T06:55:58;26.10;;;13.87;;
19679;SDS011;9989;48.962;9.182;2022-12-04T06:58:25;29.13;;;13.67;;
19679;SDS011;9989;48.962;9.182;2022-12-04T07:00:51;31.80;;;14.23;;
19679;SDS011;9989;48.962;9.182;2022-12-04T07:03:17;27.23;;;12.63;;
19679;SDS011;9989;48.962;9.182;2022-12-04T07:05:43;27.17;;;12.43;;
19679;SDS011;9989;48.962;9.182;2022-12-04T07:08:09;29.03;;;12.50;;
19679;SDS011;9989;48.962;9.182;2022-12-04T07:10:35;25.97;;;12.53;;
19679;SDS011;9989;48.962;9.182;2022-12-04T07:13:01;25.80;;;13.10;;
19679;SDS011;9989;48.962;9.182;2022-12-04T07:15:28;28.53;;;13.30;;
19679;SDS011;9989;48.962;9.182;2022-12-04T07:17:53;25.60;;;12.83;;
19679;SDS011;9989;48.962;9.182;2022-12-04T07:20:19;27.03;;;13.23;;
19679;SDS011;9989;48.962;9.182;2022-12-04T07:22:45;28.30;;;13.97;;
19679;SDS011;9989;48.962;9.182;2022-12-04T07:25:10;26.67;;;13.47;;
19679;SDS011;9989;48.962;9.182;2022-12-04T07:27:36;27.80;;;13.73;;
19679;SDS011;9989;48.962;9.182;2022-12-04T07:30:03;28.07;;;12.70;;
19679;SDS011;9989;48.962;9.182;2022-12-04T07:32:29;25.27;;;12.53;;
19679;SDS011;9989;48.962;9.182;2022-12-04T07:34:55;25.17;;;12.07;;
19679;SDS011;9989;48.962;9.182;2022-12-04T07:37:21;27.30;;;12.47;;
19679;SDS011;9989;48.962;9.182;2022-12-04T07:39:49;25.53;;;12.37;;
19679;SDS011;9989;48.962;9.182;2022-12-04T07:42:16;27.40;;;12.20;;
19679;SDS011;9989;48.962;9.182;2022-12-04T07:44:41;28.90;;;13.07;;
19679;SDS011;9989;48.962;9.182;2022-12-04T07:47:07;30.70;;;12.67;;
19679;SDS011;9989;48.962;9.182;2022-12-04T07:49:32;30.07;;;13.87;;
19679;SDS011;9989;48.962;9.182;2022-12-04T07:51:58;28.53;;;13.03;;
19679;SDS011;9989;48.962;9.182;2022-12-04T07:54:24;29.57;;;13.60;;
19679;SDS011;9989;48.962;9.182;2022-12-04T07:56:49;31.33;;;15.20;;
19679;SDS011;9989;48.962;9.182;2022-12-04T07:59:15;26.27;;;12.87;;
19679;SDS011;9989;48.962;9.182;2022-12-04T08:01:40;24.93;;;12.57;;
19679;SDS011;9989;48.962;9.182;2022-12-04T08:04:06;29.53;;;13.50;;
19679;SDS011;9989;48.962;9.182;2022-12-04T08:06:33;27.27;;;12.73;;
19679;SDS011;9989;48.962;9.182;2022-12-04T08:08:59;27.03;;;13.73;;
19679;SDS011;9989;48.962;9.182;2022-12-04T08:11:25;26.73;;;13.20;;
19679;SDS011;9989;48.962;9.182;2022-12-04T08:13:55;27.67;;;15.37;;
19679;SDS011;9989;48.962;9.182;2022-12-04T08:16:22;26.93;;;14.53;;
19679;SDS011;9989;48.962;9.182;2022-12-04T08:18:49;31.63;;;15.33;;
19679;SDS011;9989;48.962;9.182;2022-12-04T08:21:16;28.77;;;14.33;;
19679;SDS011;9989;48.962;9.182;2022-12-04T08:23:44;27.67;;;13.73;;
19679;SDS011;9989;48.962;9.182;2022-12-04T08:26:11;25.07;;;12.60;;
19679;SDS011;9989;48.962;9.182;2022-12-04T08:28:37;28.33;;;13.07;;
19679;SDS011;9989;48.962;9.182;2022-12-04T08:31:08;24.60;;;11.53;;
19679;SDS011;9989;48.962;9.182;2022-12-04T08:33:36;27.60;;;13.13;;
19679;SDS011;9989;48.962;9.182;2022-12-04T08:36:06;29.03;;;11.83;;
19679;SDS011;9989;48.962;9.182;2022-12-04T08:38:34;26.27;;;11.63;;
19679;SDS011;9989;48.962;9.182;2022-12-04T08:41:00;21.63;;;10.60;;
19679;SDS011;9989;48.962;9.182;2022-12-04T08:43:26;29.40;;;13.97;;
19679;SDS011;9989;48.962;9.182;2022-12-04T08:45:53;26.13;;;12.00;;
19679;SDS011;9989;48.962;9.182;2022-12-04T08:48:20;26.87;;;13.20;;
19679;SDS011;9989;48.962;9.182;2022-12-04T08:50:45;25.93;;;12.07;;
19679;SDS011;9989;48.962;9.182;2022-12-04T08:53:11;24.83;;;11.97;;
19679;SDS011;9989;48.962;9.182;2022-12-04T08:55:36;29.57;;;12.27;;
19679;SDS011;9989;48.962;9.182;2022-12-04T08:58:02;29.87;;;13.53;;
19679;SDS011;9989;48.962;9.182;2022-12-04T09:00:28;28.77;;;13.47;;
19679;SDS011;9989;48.962;9.182;2022-12-04T09:02:55;26.03;;;12.93;;
19679;SDS011;9989;48.962;9.182;2022-12-04T09:05:21;27.27;;;14.10;;
19679;SDS011;9989;48.962;9.182;2022-12-04T09:07:47;23.50;;;12.57;;
19679;SDS011;9989;48.962;9.182;2022-12-04T09:10:12;23.60;;;12.37;;
19679;SDS011;9989;48.962;9.182;2022-12-04T09:12:38;35.87;;;16.43;;
19679;SDS011;9989;48.962;9.182;2022-12-04T09:15:04;32.80;;;15.97;;
19679;SDS011;9989;48.962;9.182;2022-12-04T09:17:31;29.00;;;13.47;;
19679;SDS011;9989;48.962;9.182;2022-12-04T09:19:58;22.83;;;11.40;;
19679;SDS011;9989;48.962;9.182;2022-12-04T09:22:23;32.63;;;13.90;;
19679;SDS011;9989;48.962;9.182;2022-12-04T09:24:49;27.67;;;14.40;;
19679;SDS011;9989;48.962;9.182;2022-12-04T09:27:14;26.03;;;13.63;;
19679;SDS011;9989;48.962;9.182;2022-12-04T09:29:41;24.87;;;12.33;;
19679;SDS011;9989;48.962;9.182;2022-12-04T09:32:06;24.80;;;12.63;;
19679;SDS011;9989;48.962;9.182;2022-12-04T09:34:32;28.50;;;13.67;;
19679;SDS011;9989;48.962;9.182;2022-12-04T09:36:57;25.40;;;12.60;;
19679;SDS011;9989;48.962;9.182;2022-12-04T09:39:23;24.03;;;11.50;;
19679;SDS011;9989;48.962;9.182;2022-12-04T09:44:32;26.70;;;14.10;;
19679;SDS011;9989;48.962;9.182;2022-12-04T09:47:22;26.83;;;14.20;;
19679;SDS011;9989;48.962;9.182;2022-12-04T09:50:04;28.80;;;13.97;;
19679;SDS011;9989;48.962;9.182;2022-12-04T09:52:49;28.57;;;12.23;;
19679;SDS011;9989;48.962;9.182;2022-12-04T09:55:21;25.60;;;12.40;;
19679;SDS011;9989;48.962;9.182;2022-12-04T09:57:59;26.20;;;12.37;;
19679;SDS011;9989;48.962;9.182;2022-12-04T10:00:28;24.30;;;11.83;;
19679;SDS011;9989;48.962;9.182;2022-12-04T10:03:01;26.83;;;13.13;;
19679;SDS011;9989;48.962;9.182;2022-12-04T10:08:21;27.07;;;12.97;;
19679;SDS011;9989;48.962;9.182;2022-12-04T10:26:55;28.13;;;13.30;;
19679;SDS011;9989;48.962;9.182;2022-12-04T10:29:25;33.83;;;16.17;;
19679;SDS011;9989;48.962;9.182;2022-12-04T10:31:55;32.37;;;15.50;;
19679;SDS011;9989;48.962;9.182;2022-12-04T10:34:37;33.67;;;16.00;;
19679;SDS011;9989;48.962;9.182;2022-12-04T10:37:05;43.27;;;19.30;;
19679;SDS011;9989;48.962;9.182;2022-12-04T10:39:41;32.40;;;15.80;;
19679;SDS011;9989;48.962;9.182;2022-12-04T10:42:20;30.07;;;14.70;;
19679;SDS011;9989;48.962;9.182;2022-12-04T10:44:50;29.33;;;14.10;;
19679;SDS011;9989;48.962;9.182;2022-12-04T10:47:16;41.17;;;18.93;;
19679;SDS011;9989;48.962;9.182;2022-12-04T10:49:43;32.87;;;15.73;;
19679;SDS011;9989;48.962;9.182;2022-12-04T10:52:11;29.47;;;13.77;;
19679;SDS011;9989;48.962;9.182;2022-12-04T10:57:38;24.10;;;12.53;;
19679;SDS011;9989;48.962;9.182;2022-12-04T11:02:50;30.10;;;14.57;;
19679;SDS011;9989;48.962;9.182;2022-12-04T11:05:27;24.37;;;12.33;;
19679;SDS011;9989;48.962;9.182;2022-12-04T11:07:59;28.97;;;13.53;;
19679;SDS011;9989;48.962;9.182;2022-12-04T11:15:42;22.60;;;11.73;;
19679;SDS011;9989;48.962;9.182;2022-12-04T11:18:15;28.03;;;13.17;;
19679;SDS011;9989;48.962;9.182;2022-12-04T11:20:55;25.20;;;12.07;;
19679;SDS011;9989;48.962;9.182;2022-12-04T11:23:34;22.27;;;11.17;;
19679;SDS011;9989;48.962;9.182;2022-12-04T11:26:07;24.37;;;12.00;;
19679;SDS011;9989;48.962;9.182;2022-12-04T11:28:34;27.53;;;12.57;;
19679;SDS011;9989;48.962;9.182;2022-12-04T11:31:02;25.23;;;11.93;;
19679;SDS011;9989;48.962;9.182;2022-12-04T11:36:00;22.90;;;11.13;;
19679;SDS011;9989;48.962;9.182;2022-12-04T11:38:43;22.53;;;11.93;;
19679;SDS011;9989;48.962;9.182;2022-12-04T11:41:20;24.90;;;11.13;;
19679;SDS011;9989;48.962;9.182;2022-12-04T11:43:49;20.83;;;10.10;;
19679;SDS011;9989;48.962;9.182;2022-12-04T11:46:19;22.43;;;11.77;;
19679;SDS011;9989;48.962;9.182;2022-12-04T11:48:47;20.00;;;9.50;;
19679;SDS011;9989;48.962;9.182;2022-12-04T11:56:49;21.63;;;10.47;;
19679;SDS011;9989;48.962;9.182;2022-12-04T12:21:33;23.33;;;10.47;;
19679;SDS011;9989;48.962;9.182;2022-12-04T12:24:08;22.53;;;10.57;;
19679;SDS011;9989;48.962;9.182;2022-12-04T12:27:05;28.40;;;11.77;;
19679;SDS011;9989;48.962;9.182;2022-12-04T12:29:55;26.73;;;12.37;;
19679;SDS011;9989;48.962;9.182;2022-12-04T12:34:59;22.50;;;11.10;;
19679;SDS011;9989;48.962;9.182;2022-12-04T12:37:29;24.00;;;11.17;;
19679;SDS011;9989;48.962;9.182;2022-12-04T12:40:23;20.87;;;9.87;;
19679;SDS011;9989;48.962;9.182;2022-12-04T12:43:23;24.20;;;10.93;;
19679;SDS011;9989;48.962;9.182;2022-12-04T12:46:01;25.00;;;11.73;;
19679;SDS011;9989;48.962;9.182;2022-12-04T12:53:58;21.73;;;10.73;;
19679;SDS011;9989;48.962;9.182;2022-12-04T12:56:37;21.23;;;10.90;;
19679;SDS011;9989;48.962;9.182;2022-12-04T12:59:07;21.30;;;10.63;;
19679;SDS011;9989;48.962;9.182;2022-12-04T13:01:43;23.10;;;10.70;;
19679;SDS011;9989;48.962;9.182;2022-12-04T13:04:29;23.20;;;11.10;;
19679;SDS011;9989;48.962;9.182;2022-12-04T13:10:25;28.37;;;13.53;;
19679;SDS011;9989;48.962;9.182;2022-12-04T13:12:45;23.43;;;11.63;;
19679;SDS011;9989;48.962;9.182;2022-12-04T13:15:16;26.60;;;13.97;;
19679;SDS011;9989;48.962;9.182;2022-12-04T13:17:46;25.83;;;12.50;;
19679;SDS011;9989;48.962;9.182;2022-12-04T13:20:19;25.30;;;12.57;;
19679;SDS011;9989;48.962;9.182;2022-12-04T13:25:40;29.43;;;13.53;;
19679;SDS011;9989;48.962;9.182;2022-12-04T13:30:59;29.83;;;14.43;;
19679;SDS011;9989;48.962;9.182;2022-12-04T13:41:45;28.10;;;13.97;;
19679;SDS011;9989;48.962;9.182;2022-12-04T13:44:20;32.57;;;13.97;;
19679;SDS011;9989;48.962;9.182;2022-12-04T13:47:04;31.27;;;14.77;;
19679;SDS011;9989;48.962;9.182;2022-12-04T13:49:35;29.27;;;12.83;;
19679;SDS011;9989;48.962;9.182;2022-12-04T13:52:05;32.00;;;14.63;;
19679;SDS011;9989;48.962;9.182;2022-12-04T13:54:55;33.90;;;15.00;;
19679;SDS011;9989;48.962;9.182;2022-12-04T13:57:22;30.93;;;15.17;;
19679;SDS011;9989;48.962;9.182;2022-12-04T13:59:48;31.33;;;16.13;;
19679;SDS011;9989;48.962;9.182;2022-12-04T14:02:26;28.40;;;15.37;;
19679;SDS011;9989;48.962;9.182;2022-12-04T14:07:37;33.53;;;15.63;;
19679;SDS011;9989;48.962;9.182;2022-12-04T14:10:06;32.60;;;16.03;;
19679;SDS011;9989;48.962;9.182;2022-12-04T14:12:56;34.27;;;20.33;;
19679;SDS011;9989;48.962;9.182;2022-12-04T14:15:25;41.63;;;22.37;;
19679;SDS011;9989;48.962;9.182;2022-12-04T14:20:29;33.73;;;16.00;;
19679;SDS011;9989;48.962;9.182;2022-12-04T14:25:50;30.57;;;16.53;;
19679;SDS011;9989;48.962;9.182;2022-12-04T14:28:25;30.40;;;14.00;;
19679;SDS011;9989;48.962;9.182;2022-12-04T14:34:42;32.97;;;16.87;;
19679;SDS011;9989;48.962;9.182;2022-12-04T14:36:51;33.10;;;15.17;;
19679;SDS011;9989;48.962;9.182;2022-12-04T14:39:26;42.77;;;20.50;;
19679;SDS011;9989;48.962;9.182;2022-12-04T14:42:21;108.87;;;44.43;;
19679;SDS011;9989;48.962;9.182;2022-12-04T14:44:52;65.63;;;28.13;;
19679;SDS011;9989;48.962;9.182;2022-12-04T14:52:52;94.57;;;38.77;;
19679;SDS011;9989;48.962;9.182;2022-12-04T14:58:03;45.77;;;21.67;;
19679;SDS011;9989;48.962;9.182;2022-12-04T15:00:54;37.33;;;16.00;;
19679;SDS011;9989;48.962;9.182;2022-12-04T15:03:21;37.17;;;15.30;;
19679;SDS011;9989;48.962;9.182;2022-12-04T15:05:48;31.97;;;15.07;;
19679;SDS011;9989;48.962;9.182;2022-12-04T15:08:15;34.10;;;14.77;;
19679;SDS011;9989;48.962;9.182;2022-12-04T15:10:47;36.43;;;16.67;;
19679;SDS011;9989;48.962;9.182;2022-12-04T15:13:34;33.37;;;17.47;;
19679;SDS011;9989;48.962;9.182;2022-12-04T15:16:07;31.37;;;15.17;;
19679;SDS011;9989;48.962;9.182;2022-12-04T15:18:33;34.93;;;16.20;;
19679;SDS011;9989;48.962;9.182;2022-12-04T15:20:59;30.17;;;14.87;;
19679;SDS011;9989;48.962;9.182;2022-12-04T15:23:34;30.73;;;15.60;;
19679;SDS011;9989;48.962;9.182;2022-12-04T15:26:09;35.40;;;16.00;;
19679;SDS011;9989;48.962;9.182;2022-12-04T15:28:41;34.27;;;16.67;;
19679;SDS011;9989;48.962;9.182;2022-12-04T15:31:12;34.80;;;16.60;;
19679;SDS011;9989;48.962;9.182;2022-12-04T15:33:41;30.73;;;14.97;;
19679;SDS011;9989;48.962;9.182;2022-12-04T15:36:33;33.80;;;16.53;;
19679;SDS011;9989;48.962;9.182;2022-12-04T15:39:10;36.57;;;18.53;;
19679;SDS011;9989;48.962;9.182;2022-12-04T15:42:02;34.57;;;15.53;;
19679;SDS011;9989;48.962;9.182;2022-12-04T15:47:30;38.20;;;17.13;;
19679;SDS011;9989;48.962;9.182;2022-12-04T15:50:08;37.73;;;16.77;;
19679;SDS011;9989;48.962;9.182;2022-12-04T15:55:41;36.20;;;17.43;;
19679;SDS011;9989;48.962;9.182;2022-12-04T16:00:44;33.53;;;16.93;;
19679;SDS011;9989;48.962;9.182;2022-12-04T16:04:17;39.07;;;18.07;;
19679;SDS011;9989;48.962;9.182;2022-12-04T16:06:07;33.83;;;17.40;;
19679;SDS011;9989;48.962;9.182;2022-12-04T16:08:40;33.50;;;15.40;;
19679;SDS011;9989;48.962;9.182;2022-12-04T16:11:20;37.53;;;18.23;;
19679;SDS011;9989;48.962;9.182;2022-12-04T16:16:29;34.80;;;18.00;;
19679;SDS011;9989;48.962;9.182;2022-12-04T16:18:55;35.53;;;17.27;;
19679;SDS011;9989;48.962;9.182;2022-12-04T16:21:21;40.03;;;19.93;;
19679;SDS011;9989;48.962;9.182;2022-12-04T16:23:51;38.57;;;18.10;;
19679;SDS011;9989;48.962;9.182;2022-12-04T16:26:17;40.97;;;17.37;;
19679;SDS011;9989;48.962;9.182;2022-12-04T16:28:44;40.23;;;16.93;;
19679;SDS011;9989;48.962;9.182;2022-12-04T16:31:11;38.33;;;17.03;;
19679;SDS011;9989;48.962;9.182;2022-12-04T16:33:37;35.67;;;18.67;;
19679;SDS011;9989;48.962;9.182;2022-12-04T16:36:04;40.23;;;20.93;;
19679;SDS011;9989;48.962;9.182;2022-12-04T16:38:30;36.47;;;18.67;;
19679;SDS011;9989;48.962;9.182;2022-12-04T16:40:55;38.13;;;17.10;;
19679;SDS011;9989;48.962;9.182;2022-12-04T16:43:21;32.07;;;15.97;;
19679;SDS011;9989;48.962;9.182;2022-12-04T16:45:48;37.40;;;16.27;;
19679;SDS011;9989;48.962;9.182;2022-12-04T16:48:16;36.07;;;16.07;;
19679;SDS011;9989;48.962;9.182;2022-12-04T16:50:42;31.77;;;14.73;;
19679;SDS011;9989;48.962;9.182;2022-12-04T16:53:11;38.03;;;16.00;;
19679;SDS011;9989;48.962;9.182;2022-12-04T16:55:44;32.43;;;15.30;;
19679;SDS011;9989;48.962;9.182;2022-12-04T16:58:12;36.33;;;15.27;;
19679;SDS011;9989;48.962;9.182;2022-12-04T17:00:38;35.93;;;16.40;;
19679;SDS011;9989;48.962;9.182;2022-12-04T17:03:04;42.10;;;17.00;;
19679;SDS011;9989;48.962;9.182;2022-12-04T17:05:30;36.80;;;15.73;;
19679;SDS011;9989;48.962;9.182;2022-12-04T17:07:59;32.33;;;14.70;;
19679;SDS011;9989;48.962;9.182;2022-12-04T17:10:27;31.53;;;15.90;;
19679;SDS011;9989;48.962;9.182;2022-12-04T17:12:54;29.40;;;14.70;;
19679;SDS011;9989;48.962;9.182;2022-12-04T17:15:19;37.10;;;15.53;;
19679;SDS011;9989;48.962;9.182;2022-12-04T17:17:45;34.13;;;15.67;;
19679;SDS011;9989;48.962;9.182;2022-12-04T17:20:13;39.50;;;16.83;;
19679;SDS011;9989;48.962;9.182;2022-12-04T17:22:40;42.60;;;17.67;;
19679;SDS011;9989;48.962;9.182;2022-12-04T17:25:06;37.53;;;17.43;;
19679;SDS011;9989;48.962;9.182;2022-12-04T17:27:32;31.87;;;15.20;;
19679;SDS011;9989;48.962;9.182;2022-12-04T17:29:58;40.73;;;17.67;;
19679;SDS011;9989;48.962;9.182;2022-12-04T17:32:24;38.87;;;17.43;;
19679;SDS011;9989;48.962;9.182;2022-12-04T17:34:50;37.47;;;15.53;;